Time;durP1;ratioP1;P1;durP2;ratioP2;P2;SDS_P1;SDS_P2;PMS_P1;PMS_P2;Temp;Humidity;BMP_temperature;BMP_pressure;BME280_temperature;BME280_humidity;BME280_pressure;Samples;Min_cycle;Max_cycle;Signal;HPM_P1;HPM_P2
2023/04/18 00:02:07;;;;;;;;;;;;;;;4.51;81.96;103086.53;5070156;28;19927;-74
2023/04/18 00:04:33;;;;;;;;;;;;;;;4.48;82.52;103081.59;5071528;28;19982;-74
2023/04/18 00:06:59;;;;;;;;;;;;;;;4.36;82.30;103091.75;5101592;28;20006;-74
2023/04/18 00:09:25;;;;;;;;;;;;;;;4.50;82.59;103090.19;5067225;28;19934;-76
2023/04/18 00:11:51;;;;;;;;;;;;;;;4.43;82.64;103089.22;5069451;28;19954;-74
2023/04/18 00:14:18;;;;;;;;;;;;;;;4.45;82.74;103092.53;5071264;28;19941;-76
2023/04/18 00:16:45;;;;;;;;;;;;;;;4.51;82.95;103096.31;5071586;28;19953;-74
2023/04/18 00:19:11;;;;;;;;;;;;;;;4.49;82.67;103090.38;5055240;28;20307;-74
2023/04/18 00:21:38;;;;;;;;;;;;;;;4.33;83.86;103089.41;5060892;28;19990;-75
2023/04/18 00:24:03;;;;;;;;;;;;;;;4.25;83.81;103088.63;5052300;28;20049;-73
2023/04/18 00:26:29;;;;;;;;;;;;;;;4.41;83.51;103085.94;5069763;28;20000;-75
2023/04/18 00:28:56;;;;;;;;;;;;;;;4.43;83.62;103091.88;5072855;28;19938;-73
2023/04/18 00:31:22;;;;;;;;;;;;;;;4.58;83.16;103092.81;5054952;28;20008;-75
2023/04/18 00:33:49;;;;;;;;;;;;;;;4.25;83.90;103093.91;5054614;28;19994;-74
2023/04/18 00:36:15;;;;;;;;;;;;;;;3.97;84.18;103094.31;5069085;28;19950;-74
2023/04/18 00:38:40;;;;;;;;;;;;;;;4.09;84.81;103092.97;5099674;28;19940;-74
2023/04/18 00:41:06;;;;;;;;;;;;;;;4.21;84.99;103095.28;5087409;28;19938;-74
2023/04/18 00:43:33;;;;;;;;;;;;;;;4.25;84.79;103096.56;5076009;28;19943;-75
2023/04/18 00:46:00;;;;;;;;;;;;;;;4.22;84.80;103096.94;5077685;28;19952;-73
2023/04/18 00:48:26;;;;;;;;;;;;;;;4.31;84.42;103099.38;5073320;28;19943;-73
2023/04/18 00:50:53;;;;;;;;;;;;;;;4.26;84.57;103092.91;5078099;28;20481;-76
2023/04/18 00:53:18;;;;;;;;;;;;;;;4.32;84.47;103085.09;5078095;28;20017;-74
2023/04/18 00:55:44;;;;;;;;;;;;;;;4.22;84.18;103091.63;5074794;28;20086;-73
2023/04/18 00:58:10;;;;;;;;;;;;;;;4.20;84.39;103083.84;5079327;28;19988;-73
2023/04/18 01:00:36;;;;;;;;;;;;;;;4.26;84.29;103087.63;5093361;28;20044;-74
2023/04/18 01:03:02;;;;;;;;;;;;;;;4.33;84.07;103093.88;5059547;28;19930;-74
2023/04/18 01:05:28;;;;;;;;;;;;;;;4.19;84.14;103084.00;5077562;28;19958;-73
2023/04/18 01:07:59;;;;;;;;;;;;;;;3.98;84.88;103085.34;5078172;28;20463;-75
2023/04/18 01:10:25;;;;;;;;;;;;;;;3.88;85.28;103084.72;5098264;28;19937;-73
2023/04/18 01:13:08;;;;;;;;;;;;;;;4.05;84.77;103091.63;5062208;28;19942;-74
2023/04/18 01:15:33;;;;;;;;;;;;;;;3.91;85.34;103080.91;5079517;28;20458;-73
2023/04/18 01:17:59;;;;;;;;;;;;;;;3.71;85.68;103078.59;5065723;28;20617;-74
2023/04/18 01:20:25;;;;;;;;;;;;;;;3.64;85.93;103082.09;5082751;28;19939;-75
2023/04/18 01:22:51;;;;;;;;;;;;;;;3.87;85.73;103083.06;5058734;28;19930;-73
2023/04/18 01:25:16;;;;;;;;;;;;;;;3.77;85.82;103085.88;5058794;28;20422;-75
2023/04/18 01:27:42;;;;;;;;;;;;;;;3.71;86.05;103088.38;5072766;28;19984;-73
2023/04/18 01:30:09;;;;;;;;;;;;;;;3.78;86.04;103084.88;5058424;28;20656;-73
2023/04/18 01:32:35;;;;;;;;;;;;;;;3.79;86.29;103088.34;5074445;28;19961;-73
2023/04/18 01:35:02;;;;;;;;;;;;;;;3.91;85.81;103094.97;5087466;28;19939;-73
2023/04/18 01:37:30;;;;;;;;;;;;;;;3.86;85.78;103086.69;5089504;28;20379;-74
2023/04/18 01:39:57;;;;;;;;;;;;;;;3.77;86.38;103091.19;5058382;28;19930;-74
2023/04/18 01:42:22;;;;;;;;;;;;;;;3.81;86.16;103089.88;5052496;28;19947;-74
2023/04/18 01:44:48;;;;;;;;;;;;;;;3.77;86.28;103083.22;5058679;28;20137;-73
2023/04/18 01:47:13;;;;;;;;;;;;;;;3.94;86.03;103078.75;5058081;28;20028;-73
2023/04/18 01:49:41;;;;;;;;;;;;;;;4.14;85.41;103083.69;5092422;28;20698;-74
2023/04/18 01:52:07;;;;;;;;;;;;;;;4.18;84.88;103071.72;5073692;28;19988;-74
2023/04/18 01:54:32;;;;;;;;;;;;;;;4.10;85.01;103069.94;5059287;28;20234;-74
2023/04/18 01:56:58;;;;;;;;;;;;;;;4.07;85.19;103076.41;5072385;28;20008;-75
2023/04/18 01:59:23;;;;;;;;;;;;;;;4.15;84.82;103072.09;5072088;28;19941;-75
2023/04/18 02:01:49;;;;;;;;;;;;;;;4.02;84.59;103081.38;5089070;28;19932;-74
2023/04/18 02:04:16;;;;;;;;;;;;;;;3.89;84.97;103067.81;5086068;28;19937;-74
2023/04/18 02:06:41;;;;;;;;;;;;;;;3.98;84.46;103071.28;5055650;28;20117;-74
2023/04/18 02:09:07;;;;;;;;;;;;;;;3.82;84.48;103070.31;5070493;28;19941;-73
2023/04/18 02:11:32;;;;;;;;;;;;;;;3.86;84.45;103059.34;5105636;28;19955;-75
2023/04/18 02:13:58;;;;;;;;;;;;;;;3.68;85.29;103070.16;5085543;28;20680;-73
2023/04/18 02:16:26;;;;;;;;;;;;;;;3.68;84.99;103062.22;5091564;28;19946;-76
2023/04/18 02:18:52;;;;;;;;;;;;;;;3.73;84.65;103060.72;5072574;28;20326;-76
2023/04/18 02:21:21;;;;;;;;;;;;;;;3.61;85.49;103064.69;5087984;28;19936;-73
2023/04/18 02:23:47;;;;;;;;;;;;;;;3.80;84.72;103066.19;5068267;27;20027;-74
2023/04/18 02:26:13;;;;;;;;;;;;;;;3.52;85.40;103066.53;5089795;28;20073;-73
2023/04/18 02:28:38;;;;;;;;;;;;;;;3.40;85.43;103070.50;5104429;27;20002;-74
2023/04/18 02:31:05;;;;;;;;;;;;;;;3.29;86.06;103069.00;5103872;28;20033;-74
2023/04/18 02:33:32;;;;;;;;;;;;;;;3.23;86.78;103074.13;5083287;28;20324;-73
2023/04/18 02:35:58;;;;;;;;;;;;;;;3.23;86.86;103068.81;5073264;28;19945;-74
2023/04/18 02:38:23;;;;;;;;;;;;;;;3.31;86.72;103068.81;5073947;28;19947;-76
2023/04/18 02:40:50;;;;;;;;;;;;;;;3.07;87.27;103074.09;5107338;28;19936;-76
2023/04/18 02:43:16;;;;;;;;;;;;;;;3.01;87.16;103073.75;5081379;28;19931;-75
2023/04/18 02:45:41;;;;;;;;;;;;;;;3.12;86.94;103071.81;5090405;28;20787;-73
2023/04/18 02:48:08;;;;;;;;;;;;;;;3.24;87.14;103073.13;5072711;28;20378;-73
2023/04/18 02:50:34;;;;;;;;;;;;;;;3.05;87.05;103076.06;5087203;28;19948;-74
2023/04/18 02:53:01;;;;;;;;;;;;;;;2.93;87.29;103075.56;5057245;28;19948;-77
2023/04/18 02:55:37;;;;;;;;;;;;;;;3.01;87.40;103079.06;5073188;28;19955;-74
2023/04/18 02:58:03;;;;;;;;;;;;;;;2.95;87.55;103085.00;5074184;28;20019;-74
2023/04/18 03:00:54;;;;;;;;;;;;;;;2.87;87.75;103089.44;5071860;28;19930;-76
2023/04/18 03:03:43;;;;;;;;;;;;;;;2.90;87.56;103089.94;5086196;28;19940;-75
2023/04/18 03:06:20;;;;;;;;;;;;;;;2.65;88.04;103094.34;5088437;28;20344;-75
2023/04/18 03:08:46;;;;;;;;;;;;;;;2.61;88.28;103085.03;5089683;28;19939;-74
2023/04/18 03:11:12;;;;;;;;;;;;;;;2.52;88.37;103088.66;5054415;28;19942;-74
2023/04/18 03:13:38;;;;;;;;;;;;;;;2.54;89.06;103097.25;5072074;28;19943;-74
2023/04/18 03:16:04;;;;;;;;;;;;;;;2.48;89.16;103100.53;5073442;28;19952;-74
2023/04/18 03:18:31;;;;;;;;;;;;;;;2.48;89.03;103095.25;5053794;28;20390;-75
2023/04/18 03:20:57;;;;;;;;;;;;;;;2.30;89.16;103103.22;5055552;28;19937;-75
2023/04/18 03:23:24;;;;;;;;;;;;;;;2.29;89.81;103101.59;5071590;28;19981;-75
2023/04/18 03:25:50;;;;;;;;;;;;;;;2.26;89.46;103096.63;5057117;28;20032;-74
2023/04/18 03:28:19;;;;;;;;;;;;;;;2.39;89.46;103099.66;5073052;28;19941;-76
2023/04/18 03:30:44;;;;;;;;;;;;;;;2.30;89.88;103103.22;5068203;28;20326;-75
2023/04/18 03:33:10;;;;;;;;;;;;;;;2.14;89.69;103103.16;5072114;28;19931;-76
2023/04/18 03:35:37;;;;;;;;;;;;;;;2.04;89.72;103108.56;5067701;28;19960;-76
2023/04/18 03:38:03;;;;;;;;;;;;;;;1.95;89.98;103116.56;5072429;28;19928;-76
2023/04/18 03:40:34;;;;;;;;;;;;;;;1.89;90.40;103110.91;5055635;28;19940;-76
2023/04/18 03:43:06;;;;;;;;;;;;;;;1.81;90.36;103113.50;5055951;28;19965;-75
2023/04/18 03:45:32;;;;;;;;;;;;;;;1.77;90.60;103112.16;5083180;28;20577;-73
2023/04/18 03:47:58;;;;;;;;;;;;;;;1.75;90.83;103124.66;5062858;28;20304;-74
2023/04/18 03:50:24;;;;;;;;;;;;;;;1.73;91.22;103118.72;5085071;28;19939;-76
2023/04/18 03:52:52;;;;;;;;;;;;;;;1.64;90.87;103123.13;5067554;28;19986;-76
2023/04/18 03:55:18;;;;;;;;;;;;;;;1.64;91.30;103123.13;5065748;28;19946;-77
2023/04/18 03:57:44;;;;;;;;;;;;;;;1.74;91.83;103128.31;5071421;28;19930;-75
2023/04/18 04:00:16;;;;;;;;;;;;;;;1.66;91.54;103124.78;5055241;28;19929;-75
2023/04/18 04:02:48;;;;;;;;;;;;;;;1.62;91.72;103124.22;5089212;28;19980;-75
2023/04/18 04:05:18;;;;;;;;;;;;;;;1.68;91.92;103126.25;5067034;28;20298;-74
2023/04/18 04:07:45;;;;;;;;;;;;;;;1.69;92.07;103114.72;5070188;28;19960;-73
2023/04/18 04:10:13;;;;;;;;;;;;;;;1.66;92.10;103122.94;5056402;28;19932;-74
2023/04/18 04:12:41;;;;;;;;;;;;;;;1.66;91.82;103122.94;5053927;28;20080;-75
2023/04/18 04:15:07;;;;;;;;;;;;;;;1.61;91.87;103127.84;5083964;28;19938;-74
2023/04/18 04:17:35;;;;;;;;;;;;;;;1.58;92.18;103128.16;5073111;28;20003;-74
2023/04/18 04:20:01;;;;;;;;;;;;;;;1.58;91.91;103125.53;5083237;28;19966;-75
2023/04/18 04:22:28;;;;;;;;;;;;;;;1.47;92.02;103126.56;5058107;28;19964;-73
2023/04/18 04:24:56;;;;;;;;;;;;;;;1.44;92.14;103126.06;5068975;28;20314;-74
2023/04/18 04:27:29;;;;;;;;;;;;;;;1.49;92.22;103124.63;5080702;28;19987;-73
2023/04/18 04:29:55;;;;;;;;;;;;;;;1.58;92.13;103130.81;5071472;28;19981;-75
2023/04/18 04:32:21;;;;;;;;;;;;;;;1.63;92.53;103133.84;5052188;28;21010;-75
2023/04/18 04:34:50;;;;;;;;;;;;;;;1.78;92.45;103134.94;5087467;28;20476;-75
2023/04/18 04:37:20;;;;;;;;;;;;;;;1.91;91.85;103130.09;5065789;28;19930;-73
2023/04/18 04:39:59;;;;;;;;;;;;;;;2.04;91.75;103139.44;5086589;28;19941;-75
2023/04/18 04:42:45;;;;;;;;;;;;;;;2.18;91.75;103131.78;5086367;28;20310;-74
2023/04/18 04:45:16;;;;;;;;;;;;;;;2.30;91.42;103136.78;5052325;28;20464;-74
2023/04/18 04:47:42;;;;;;;;;;;;;;;2.54;90.55;103141.41;5071510;28;19939;-73
2023/04/18 04:50:13;;;;;;;;;;;;;;;2.77;89.79;103142.47;5073931;28;19930;-76
2023/04/18 04:52:39;;;;;;;;;;;;;;;2.74;89.59;103141.00;5102410;28;19947;-74
2023/04/18 04:55:05;;;;;;;;;;;;;;;2.81;88.71;103138.53;5070007;28;19954;-75
2023/04/18 04:57:32;;;;;;;;;;;;;;;2.80;89.16;103150.13;5084186;28;19971;-73
2023/04/18 04:59:58;;;;;;;;;;;;;;;2.95;88.04;103147.69;5068920;28;19935;-72
2023/04/18 05:02:25;;;;;;;;;;;;;;;3.04;87.74;103154.66;5067980;28;20370;-74
2023/04/18 05:04:53;;;;;;;;;;;;;;;3.19;87.13;103153.06;5071420;28;19986;-73
2023/04/18 05:07:21;;;;;;;;;;;;;;;3.26;86.67;103153.25;5070639;28;19958;-72
2023/04/18 05:09:47;;;;;;;;;;;;;;;3.37;85.78;103152.09;5082188;28;19962;-73
2023/04/18 05:12:13;;;;;;;;;;;;;;;3.28;85.75;103162.69;5054573;28;21128;-72
2023/04/18 05:14:38;;;;;;;;;;;;;;;3.33;85.76;103159.56;5100175;28;20058;-74
2023/04/18 05:17:04;;;;;;;;;;;;;;;3.50;84.70;103165.69;5089163;28;19953;-72
2023/04/18 05:19:29;;;;;;;;;;;;;;;3.53;84.76;103155.63;5089387;28;20585;-74
2023/04/18 05:21:55;;;;;;;;;;;;;;;3.68;83.58;103154.97;5083570;28;19932;-74
2023/04/18 05:24:20;;;;;;;;;;;;;;;3.67;83.25;103146.19;5087077;28;20154;-74
2023/04/18 05:26:46;;;;;;;;;;;;;;;3.83;82.55;103150.66;5084897;28;20361;-72
2023/04/18 05:29:11;;;;;;;;;;;;;;;3.90;82.10;103153.47;5085547;28;20520;-76
2023/04/18 05:31:37;;;;;;;;;;;;;;;3.92;82.16;103162.09;5087762;28;19997;-73
2023/04/18 05:34:03;;;;;;;;;;;;;;;3.98;81.76;103170.19;5090132;28;19985;-75
2023/04/18 05:36:28;;;;;;;;;;;;;;;4.08;80.72;103157.63;5074604;28;19949;-74
2023/04/18 05:38:55;;;;;;;;;;;;;;;4.26;79.80;103162.72;5091417;28;19956;-76
2023/04/18 05:41:20;;;;;;;;;;;;;;;4.39;79.06;103156.88;5074424;28;19941;-74
2023/04/18 05:43:46;;;;;;;;;;;;;;;4.34;79.27;103160.06;5087898;28;19941;-73
2023/04/18 05:46:11;;;;;;;;;;;;;;;4.43;79.15;103166.19;5072458;28;19945;-74
2023/04/18 05:48:36;;;;;;;;;;;;;;;4.56;78.30;103169.13;5073397;28;20424;-75
2023/04/18 05:51:03;;;;;;;;;;;;;;;4.60;78.38;103166.94;5076610;28;19915;-75
2023/04/18 05:53:29;;;;;;;;;;;;;;;4.74;76.88;103165.41;5083716;28;19937;-74
2023/04/18 05:55:56;;;;;;;;;;;;;;;4.74;77.13;103171.56;5068767;28;20349;-74
2023/04/18 05:58:22;;;;;;;;;;;;;;;4.97;76.28;103174.28;5060180;28;19945;-75
2023/04/18 06:00:47;;;;;;;;;;;;;;;4.94;76.53;103171.97;5072996;28;20299;-75
2023/04/18 06:03:13;;;;;;;;;;;;;;;5.00;74.03;103171.28;5089447;28;19935;-75
2023/04/18 06:05:39;;;;;;;;;;;;;;;5.13;74.95;103184.81;5075218;28;19944;-73
2023/04/18 06:08:06;;;;;;;;;;;;;;;5.23;72.71;103175.84;5088401;28;20023;-75
2023/04/18 06:10:31;;;;;;;;;;;;;;;5.36;73.19;103181.41;5074702;28;19937;-75
2023/04/18 06:12:57;;;;;;;;;;;;;;;5.44;72.93;103178.69;5092778;28;19939;-75
2023/04/18 06:15:23;;;;;;;;;;;;;;;5.55;71.91;103180.94;5061282;28;19959;-73
2023/04/18 06:17:50;;;;;;;;;;;;;;;5.63;71.74;103185.38;5105405;28;19993;-74
2023/04/18 06:20:16;;;;;;;;;;;;;;;5.69;70.67;103182.00;5072883;28;20362;-75
2023/04/18 06:22:42;;;;;;;;;;;;;;;5.91;70.53;103189.19;5104608;28;19946;-75
2023/04/18 06:25:08;;;;;;;;;;;;;;;6.08;68.88;103175.72;5074886;28;20014;-72
2023/04/18 06:27:34;;;;;;;;;;;;;;;6.01;69.29;103187.09;5106938;28;20178;-73
2023/04/18 06:30:00;;;;;;;;;;;;;;;5.99;68.59;103182.97;5089682;28;19939;-72
2023/04/18 06:32:26;;;;;;;;;;;;;;;6.01;69.72;103187.09;5091737;28;20443;-73
2023/04/18 06:34:51;;;;;;;;;;;;;;;6.06;68.07;103186.56;5099198;28;19951;-74
2023/04/18 06:37:17;;;;;;;;;;;;;;;5.98;68.54;103187.47;5091643;28;19969;-74
2023/04/18 06:39:43;;;;;;;;;;;;;;;6.03;68.52;103197.56;5106654;28;19979;-73
2023/04/18 06:42:08;;;;;;;;;;;;;;;6.23;67.16;103188.09;5068846;28;20287;-75
2023/04/18 06:44:42;;;;;;;;;;;;;;;6.46;66.75;103181.88;5069995;28;20024;-73
2023/04/18 06:47:08;;;;;;;;;;;;;;;6.56;66.04;103174.41;5089036;28;20674;-74
2023/04/18 06:49:34;;;;;;;;;;;;;;;6.60;65.60;103175.72;5087280;28;19938;-73
2023/04/18 06:51:59;;;;;;;;;;;;;;;6.66;65.28;103174.97;5054271;28;19951;-75
2023/04/18 06:54:28;;;;;;;;;;;;;;;6.81;66.10;103173.13;5069352;28;19934;-73
2023/04/18 06:56:54;;;;;;;;;;;;;;;7.09;64.55;103180.44;5074726;28;20449;-75
2023/04/18 06:59:20;;;;;;;;;;;;;;;7.12;63.79;103177.41;5056267;28;19938;-74
2023/04/18 07:01:46;;;;;;;;;;;;;;;7.08;64.78;103181.47;5087039;28;19958;-73
2023/04/18 07:04:12;;;;;;;;;;;;;;;7.42;63.58;103185.31;5053192;28;20317;-75
2023/04/18 07:06:38;;;;;;;;;;;;;;;7.16;63.65;103193.84;5074517;28;19950;-74
2023/04/18 07:09:03;;;;;;;;;;;;;;;7.45;64.88;103196.47;5103132;28;19942;-75
2023/04/18 07:11:29;;;;;;;;;;;;;;;7.46;63.76;103186.63;5090819;28;20035;-74
2023/04/18 07:13:54;;;;;;;;;;;;;;;7.53;63.22;103198.19;5090952;28;19936;-75
2023/04/18 07:16:20;;;;;;;;;;;;;;;7.76;62.96;103190.81;5066810;28;20347;-73
2023/04/18 07:18:46;;;;;;;;;;;;;;;7.83;61.93;103193.53;5087405;28;19938;-74
2023/04/18 07:21:11;;;;;;;;;;;;;;;7.98;64.14;103188.13;5070392;28;19940;-73
2023/04/18 07:23:37;;;;;;;;;;;;;;;7.94;62.34;103185.84;5085165;28;19985;-73
2023/04/18 07:26:04;;;;;;;;;;;;;;;8.00;62.41;103186.09;5056412;28;20012;-74
2023/04/18 07:28:30;;;;;;;;;;;;;;;7.81;62.35;103188.41;5063512;28;19931;-74
2023/04/18 07:30:56;;;;;;;;;;;;;;;7.87;62.74;103190.31;5056362;28;19944;-75
2023/04/18 07:33:22;;;;;;;;;;;;;;;7.91;63.55;103196.88;5088457;28;21106;-74
2023/04/18 07:35:48;;;;;;;;;;;;;;;7.84;63.70;103198.66;5072356;28;19963;-75
2023/04/18 07:38:16;;;;;;;;;;;;;;;7.99;64.02;103187.91;5072274;28;19938;-75
2023/04/18 07:40:41;;;;;;;;;;;;;;;7.92;64.45;103197.72;5072182;28;19982;-75
2023/04/18 07:43:07;;;;;;;;;;;;;;;7.97;64.78;103199.81;5108574;28;20318;-74
2023/04/18 07:45:35;;;;;;;;;;;;;;;8.13;64.61;103194.22;5084726;28;19998;-75
2023/04/18 07:48:01;;;;;;;;;;;;;;;8.16;64.38;103201.81;5070731;28;20398;-74
2023/04/18 07:50:26;;;;;;;;;;;;;;;8.28;63.78;103197.63;5072241;28;19937;-74
2023/04/18 07:52:52;;;;;;;;;;;;;;;8.39;62.45;103193.59;5094162;28;20014;-73
2023/04/18 07:55:17;;;;;;;;;;;;;;;8.16;63.64;103197.31;5079138;28;19950;-74
2023/04/18 07:57:43;;;;;;;;;;;;;;;8.24;64.03;103200.84;5064747;28;19944;-73
2023/04/18 08:00:10;;;;;;;;;;;;;;;8.48;63.19;103198.59;5058656;28;19928;-74
2023/04/18 08:02:40;;;;;;;;;;;;;;;8.75;62.65;103196.91;5075420;28;19938;-75
2023/04/18 08:05:06;;;;;;;;;;;;;;;9.17;62.16;103188.88;5050305;28;19943;-73
2023/04/18 08:07:31;;;;;;;;;;;;;;;9.50;60.06;103187.13;5089829;28;20320;-74
2023/04/18 08:09:56;;;;;;;;;;;;;;;9.58;60.99;103191.47;5105381;28;19986;-73
2023/04/18 08:12:22;;;;;;;;;;;;;;;9.45;59.42;103189.56;5085582;28;20521;-74
2023/04/18 08:14:47;;;;;;;;;;;;;;;9.46;62.13;103193.88;5113090;27;20020;-74
2023/04/18 08:17:16;;;;;;;;;;;;;;;9.16;61.13;103192.59;5073446;28;19951;-73
2023/04/18 08:19:44;;;;;;;;;;;;;;;9.68;60.28;103185.69;5090982;28;20452;-75
2023/04/18 08:22:10;;;;;;;;;;;;;;;9.55;60.62;103173.97;5072754;28;20354;-73
2023/04/18 08:24:39;;;;;;;;;;;;;;;9.53;61.55;103176.00;5104369;28;20000;-75
2023/04/18 08:27:05;;;;;;;;;;;;;;;9.89;61.15;103182.84;5102441;28;19980;-73
2023/04/18 08:29:30;;;;;;;;;;;;;;;9.89;60.38;103192.72;5085957;28;20007;-76
2023/04/18 08:31:56;;;;;;;;;;;;;;;9.83;60.66;103191.72;5087682;28;19964;-75
2023/04/18 08:34:22;;;;;;;;;;;;;;;10.05;60.53;103201.19;5085658;28;20309;-74
2023/04/18 08:36:49;;;;;;;;;;;;;;;10.45;59.16;103197.69;5058623;28;19982;-74
2023/04/18 08:39:14;;;;;;;;;;;;;;;10.83;57.96;103198.59;5073939;28;20445;-74
2023/04/18 08:41:41;;;;;;;;;;;;;;;10.36;58.34;103202.41;5069280;28;20452;-74
2023/04/18 08:44:07;;;;;;;;;;;;;;;10.34;59.36;103204.47;5100922;28;20323;-73
2023/04/18 08:46:34;;;;;;;;;;;;;;;10.07;59.99;103203.63;5068572;28;19977;-73
2023/04/18 08:49:05;;;;;;;;;;;;;;;9.11;61.30;103203.88;5070763;28;19944;-74
2023/04/18 08:51:36;;;;;;;;;;;;;;;9.15;61.88;103204.31;5087247;28;20472;-75
2023/04/18 08:54:05;;;;;;;;;;;;;;;9.19;61.72;103205.53;5075165;28;19929;-73
2023/04/18 08:56:30;;;;;;;;;;;;;;;9.20;62.14;103201.84;5104104;28;20043;-75
2023/04/18 08:58:59;;;;;;;;;;;;;;;9.23;61.79;103196.94;5073111;28;20097;-73
2023/04/18 09:01:43;;;;;;;;;;;;;;;9.22;61.05;103194.47;5097542;28;19932;-73
2023/04/18 09:04:09;;;;;;;;;;;;;;;9.62;61.52;103200.75;5055367;28;20550;-76
2023/04/18 09:06:50;;;;;;;;;;;;;;;10.16;60.60;103196.22;5103784;28;19988;-73
2023/04/18 09:09:15;;;;;;;;;;;;;;;10.31;59.87;103196.88;5068797;28;20016;-74
2023/04/18 09:11:41;;;;;;;;;;;;;;;10.20;59.28;103197.47;5087399;28;19989;-74
2023/04/18 09:14:06;;;;;;;;;;;;;;;10.22;59.34;103192.72;5091937;28;19938;-75
2023/04/18 09:16:43;;;;;;;;;;;;;;;10.06;59.33;103197.47;5078108;28;19999;-71
2023/04/18 09:19:10;;;;;;;;;;;;;;;9.98;59.24;103197.69;5103665;28;19933;-75
2023/04/18 09:21:40;;;;;;;;;;;;;;;10.13;59.19;103192.94;5070441;28;20332;-75
2023/04/18 09:24:16;;;;;;;;;;;;;;;10.11;58.32;103195.00;5072806;28;20406;-74
2023/04/18 09:26:42;;;;;;;;;;;;;;;10.07;59.03;103204.47;5071790;28;20561;-73
2023/04/18 09:29:08;;;;;;;;;;;;;;;9.83;57.48;103197.88;5089991;28;19940;-73
2023/04/18 09:31:34;;;;;;;;;;;;;;;9.91;58.12;103212.91;5105388;28;20039;-74
2023/04/18 09:34:03;;;;;;;;;;;;;;;9.87;58.65;103208.97;5059347;28;20025;-76
2023/04/18 09:36:31;;;;;;;;;;;;;;;9.75;58.64;103211.44;5070997;28;20002;-75
2023/04/18 09:38:56;;;;;;;;;;;;;;;9.45;58.21;103208.28;5070927;28;19939;-74
2023/04/18 09:41:22;;;;;;;;;;;;;;;9.42;58.30;103213.25;5092293;28;19936;-74
2023/04/18 09:43:48;;;;;;;;;;;;;;;9.54;58.26;103208.94;5100434;28;19953;-75
2023/04/18 09:46:13;;;;;;;;;;;;;;;9.70;57.63;103208.56;5071439;28;20431;-72
2023/04/18 09:48:40;;;;;;;;;;;;;;;9.54;57.59;103209.75;5093050;28;20389;-74
2023/04/18 09:51:06;;;;;;;;;;;;;;;9.21;57.30;103207.00;5075779;28;19956;-73
2023/04/18 09:53:39;;;;;;;;;;;;;;;9.39;57.57;103208.28;5101170;28;19960;-75
2023/04/18 09:56:10;;;;;;;;;;;;;;;9.92;56.14;103211.88;5108645;28;19956;-74
2023/04/18 09:58:39;;;;;;;;;;;;;;;9.91;55.85;103202.22;5077324;28;19940;-74
2023/04/18 10:01:05;;;;;;;;;;;;;;;10.16;54.65;103199.75;5070096;28;19933;-73
2023/04/18 10:03:33;;;;;;;;;;;;;;;9.89;54.75;103212.31;5105086;28;19977;-73
2023/04/18 10:05:59;;;;;;;;;;;;;;;9.91;53.71;103198.72;5060340;28;19958;-72
2023/04/18 10:08:25;;;;;;;;;;;;;;;10.09;54.39;103204.25;5061303;28;19936;-74
2023/04/18 10:10:50;;;;;;;;;;;;;;;10.35;54.13;103188.19;5055692;28;19942;-74
2023/04/18 10:13:17;;;;;;;;;;;;;;;10.49;53.41;103191.69;5088448;28;20275;-74
2023/04/18 10:15:43;;;;;;;;;;;;;;;10.20;54.05;103200.97;5084492;28;20715;-75
2023/04/18 10:18:09;;;;;;;;;;;;;;;10.79;52.49;103188.53;5058262;28;19931;-73
2023/04/18 10:20:35;;;;;;;;;;;;;;;10.50;53.81;103182.63;5086352;28;19936;-73
2023/04/18 10:23:20;;;;;;;;;;;;;;;10.40;54.36;103195.63;5073729;28;20308;-74
2023/04/18 10:25:47;;;;;;;;;;;;;;;10.75;53.05;103187.28;5086549;28;19961;-73
2023/04/18 10:28:13;;;;;;;;;;;;;;;10.51;53.30;103178.91;5073361;28;20611;-71
2023/04/18 10:30:39;;;;;;;;;;;;;;;10.89;53.16;103180.84;5103974;28;19971;-74
2023/04/18 10:33:23;;;;;;;;;;;;;;;10.75;52.76;103193.47;5075369;28;19997;-73
2023/04/18 10:36:15;;;;;;;;;;;;;;;10.51;53.14;103200.34;5088778;28;20002;-73
2023/04/18 10:38:45;;;;;;;;;;;;;;;10.61;53.27;103194.53;5098921;28;19947;-74
2023/04/18 10:41:13;;;;;;;;;;;;;;;10.88;52.63;103185.38;5071119;28;19984;-74
2023/04/18 10:44:01;;;;;;;;;;;;;;;11.12;52.66;103181.19;5103099;28;19969;-76
2023/04/18 10:46:27;;;;;;;;;;;;;;;10.76;53.02;103191.59;5081596;28;19971;-76
2023/04/18 10:49:11;;;;;;;;;;;;;;;10.68;53.88;103186.50;5073195;28;20332;-73
2023/04/18 10:51:37;;;;;;;;;;;;;;;10.62;53.66;103185.47;5076462;28;20013;-76
2023/04/18 10:54:03;;;;;;;;;;;;;;;10.70;54.72;103192.44;5066263;28;20595;-75
2023/04/18 10:56:29;;;;;;;;;;;;;;;10.89;53.74;103186.22;5080454;28;19958;-73
2023/04/18 10:59:00;;;;;;;;;;;;;;;10.36;54.47;103191.69;5086048;28;20316;-73
2023/04/18 11:01:29;;;;;;;;;;;;;;;10.52;54.08;103188.59;5071065;28;20405;-74
2023/04/18 11:03:55;;;;;;;;;;;;;;;10.56;53.88;103192.47;5088187;28;20294;-74
2023/04/18 11:06:21;;;;;;;;;;;;;;;10.52;53.65;103185.91;5082373;28;20439;-75
2023/04/18 11:08:48;;;;;;;;;;;;;;;10.84;54.52;103172.63;5104083;28;20039;-73
2023/04/18 11:11:14;;;;;;;;;;;;;;;11.03;53.56;103176.25;5053230;28;19952;-76
2023/04/18 11:13:55;;;;;;;;;;;;;;;11.16;53.61;103179.69;5069171;28;19997;-75
2023/04/18 11:16:27;;;;;;;;;;;;;;;10.99;53.38;103186.59;5073081;28;20022;-73
2023/04/18 11:18:53;;;;;;;;;;;;;;;10.41;54.46;103181.19;5083127;28;20592;-75
2023/04/18 11:21:18;;;;;;;;;;;;;;;10.71;55.69;103183.41;5054549;28;19933;-75
2023/04/18 11:23:45;;;;;;;;;;;;;;;10.62;54.96;103175.56;5073141;28;20399;-74
2023/04/18 11:26:16;;;;;;;;;;;;;;;10.73;55.33;103181.31;5057487;28;20332;-73
2023/04/18 11:28:42;;;;;;;;;;;;;;;11.21;53.59;103173.69;5110822;27;19936;-75
2023/04/18 11:31:10;;;;;;;;;;;;;;;11.23;54.05;103184.19;5055153;28;20346;-73
2023/04/18 11:33:35;;;;;;;;;;;;;;;11.23;54.91;103176.97;5072527;28;20008;-74
2023/04/18 11:36:01;;;;;;;;;;;;;;;11.35;54.68;103177.13;5088636;28;19957;-75
2023/04/18 11:38:28;;;;;;;;;;;;;;;11.28;54.71;103179.84;5073250;28;20422;-76
2023/04/18 11:40:54;;;;;;;;;;;;;;;11.16;55.50;103177.00;5072240;28;20423;-74
2023/04/18 11:43:23;;;;;;;;;;;;;;;11.11;56.03;103179.53;5069061;28;19976;-74
2023/04/18 11:45:53;;;;;;;;;;;;;;;11.68;55.30;103179.59;5072936;28;19955;-76
2023/04/18 11:48:18;;;;;;;;;;;;;;;11.26;55.55;103176.56;5084190;28;20466;-75
2023/04/18 11:50:44;;;;;;;;;;;;;;;11.51;55.67;103171.22;5086155;28;19942;-72
2023/04/18 11:53:10;;;;;;;;;;;;;;;11.48;53.69;103171.69;5052748;28;19986;-75
2023/04/18 11:55:35;;;;;;;;;;;;;;;11.24;54.60;103172.44;5105800;28;19950;-75
2023/04/18 11:58:02;;;;;;;;;;;;;;;11.11;55.97;103176.84;5103681;28;19963;-74
2023/04/18 12:00:31;;;;;;;;;;;;;;;11.33;54.71;103176.53;5091220;28;19939;-75
2023/04/18 12:02:58;;;;;;;;;;;;;;;11.38;55.19;103182.03;5057512;28;19935;-74
2023/04/18 12:05:25;;;;;;;;;;;;;;;11.74;54.59;103181.41;5078135;28;20405;-75
2023/04/18 12:07:50;;;;;;;;;;;;;;;11.92;54.05;103178.84;5069351;28;19980;-74
2023/04/18 12:10:18;;;;;;;;;;;;;;;11.63;54.52;103177.56;5058000;28;19973;-74
2023/04/18 12:12:48;;;;;;;;;;;;;;;11.91;53.93;103179.84;5086360;28;20040;-73
2023/04/18 12:15:15;;;;;;;;;;;;;;;11.72;54.19;103181.66;5074414;28;19963;-74
2023/04/18 12:17:45;;;;;;;;;;;;;;;11.92;54.08;103183.34;5109486;28;19936;-77
2023/04/18 12:20:12;;;;;;;;;;;;;;;12.08;53.36;103169.41;5055003;28;20131;-73
2023/04/18 12:22:42;;;;;;;;;;;;;;;11.99;54.16;103176.09;5068623;28;19963;-73
2023/04/18 12:25:08;;;;;;;;;;;;;;;11.88;54.49;103168.75;5088134;28;19932;-73
2023/04/18 12:27:47;;;;;;;;;;;;;;;12.90;52.80;103166.44;5088174;28;19937;-73
2023/04/18 12:30:15;;;;;;;;;;;;;;;13.14;52.20;103157.47;5079822;28;19933;-76
2023/04/18 12:32:43;;;;;;;;;;;;;;;12.82;52.19;103164.91;5086853;28;19985;-73
2023/04/18 12:35:09;;;;;;;;;;;;;;;13.04;51.51;103151.78;5073176;28;19936;-73
2023/04/18 12:37:35;;;;;;;;;;;;;;;12.34;53.35;103165.63;5100786;28;20027;-75
2023/04/18 12:40:00;;;;;;;;;;;;;;;11.88;55.04;103168.75;5089655;28;19974;-73
2023/04/18 12:42:26;;;;;;;;;;;;;;;12.15;55.23;103164.78;5102334;28;20419;-75
2023/04/18 12:44:51;;;;;;;;;;;;;;;12.11;55.13;103162.75;5107513;28;20456;-74